createdAt,value
2023-01-19T00:10:58.707Z,11.28
2023-01-19T00:22:59.109Z,11.26
2023-01-19T00:34:58.632Z,11.26
2023-01-19T00:46:58.628Z,11.25
2023-01-19T00:58:58.738Z,11.23
2023-01-19T01:10:58.689Z,11.23
2023-01-19T01:22:59.139Z,11.21
2023-01-19T01:34:58.711Z,11.21
2023-01-19T01:46:58.715Z,11.20
2023-01-19T01:58:58.620Z,11.19
2023-01-19T02:10:58.622Z,11.18
2023-01-19T02:22:58.965Z,11.17
2023-01-19T02:34:58.677Z,11.16
2023-01-19T02:46:58.707Z,11.15
2023-01-19T02:58:58.768Z,11.15
2023-01-19T03:10:58.752Z,11.14
2023-01-19T03:22:59.207Z,11.13
2023-01-19T03:34:58.711Z,11.12
2023-01-19T03:46:58.706Z,11.11
2023-01-19T03:58:58.688Z,11.10
2023-01-19T04:10:58.645Z,11.09
2023-01-19T04:22:59.054Z,11.08
2023-01-19T04:34:58.742Z,11.07
2023-01-19T04:46:58.712Z,11.04
2023-01-19T04:58:58.712Z,11.05
2023-01-19T05:10:58.643Z,11.03
2023-01-19T05:22:59.213Z,11.03
2023-01-19T05:34:58.712Z,11.00
2023-01-19T05:46:58.815Z,11.02
2023-01-19T05:58:58.718Z,10.99
2023-01-19T06:10:58.617Z,11.00
2023-01-19T06:22:59.275Z,10.99
2023-01-19T06:34:58.687Z,10.99
2023-01-19T06:47:15.078Z,10.96
2023-01-19T06:58:58.734Z,10.97
2023-01-19T07:11:24.591Z,10.97
2023-01-19T07:22:59.179Z,10.97
2023-01-19T07:34:58.727Z,10.94
2023-01-19T07:46:58.743Z,10.95
2023-01-19T07:58:58.679Z,10.95
2023-01-19T08:10:58.626Z,10.95
2023-01-19T08:22:58.991Z,10.94
2023-01-19T08:34:58.641Z,10.93
2023-01-19T08:46:58.642Z,10.93
2023-01-19T08:59:08.654Z,10.91
2023-01-19T09:10:58.724Z,10.93
2023-01-19T09:22:58.762Z,10.92
2023-01-19T09:34:58.719Z,10.92
2023-01-19T09:46:58.623Z,10.91
2023-01-19T09:58:58.736Z,10.90
2023-01-19T10:10:58.742Z,10.91
2023-01-19T10:22:59.229Z,10.91
2023-01-19T10:34:58.713Z,10.89
2023-01-19T10:46:58.793Z,10.90
2023-01-19T10:58:58.789Z,10.89
2023-01-19T11:10:58.714Z,10.89
2023-01-19T11:22:58.701Z,10.88
2023-01-19T11:34:58.619Z,10.88
2023-01-19T11:46:58.781Z,10.88
2023-01-19T11:58:58.635Z,10.86
2023-01-19T12:10:58.623Z,10.85
2023-01-19T12:22:59.750Z,10.86
2023-01-19T12:34:58.713Z,10.87
2023-01-19T12:46:58.630Z,10.85
2023-01-19T12:58:58.713Z,10.86
2023-01-19T13:10:58.688Z,10.86
2023-01-19T13:22:58.704Z,10.86
2023-01-19T13:34:58.909Z,10.85
2023-01-19T13:46:58.628Z,10.85
2023-01-19T13:58:58.620Z,10.85
2023-01-19T14:10:58.736Z,10.84
2023-01-19T14:22:58.680Z,10.85
2023-01-19T14:34:58.617Z,10.84
2023-01-19T14:46:58.906Z,10.84
2023-01-19T14:58:58.752Z,10.84
2023-01-19T15:10:58.632Z,10.83
2023-01-19T15:22:58.627Z,10.83
2023-01-19T15:34:58.728Z,10.82
2023-01-19T15:46:58.731Z,10.82
2023-01-19T15:58:58.766Z,10.82
2023-01-19T16:10:58.710Z,10.81
2023-01-19T16:23:13.427Z,10.81
2023-01-19T16:34:58.737Z,10.80
2023-01-19T16:46:58.626Z,10.80
2023-01-19T16:58:58.729Z,10.80
2023-01-19T17:10:58.737Z,10.80
2023-01-19T17:22:58.618Z,10.79
2023-01-19T17:34:58.625Z,10.79
2023-01-19T17:46:59.943Z,10.79
2023-01-19T17:58:58.749Z,10.78
2023-01-19T18:10:58.727Z,10.77
2023-01-19T18:22:58.693Z,10.77
2023-01-19T18:34:58.649Z,10.77
2023-01-19T18:46:58.750Z,10.76
2023-01-19T18:58:58.717Z,10.77
2023-01-19T19:10:58.653Z,10.76
2023-01-19T19:22:58.724Z,10.75
2023-01-19T19:34:58.615Z,10.75
2023-01-19T19:46:58.631Z,10.75
2023-01-19T19:58:58.721Z,10.75
2023-01-19T20:10:58.728Z,10.73
2023-01-19T20:22:58.728Z,10.73
2023-01-19T20:34:58.627Z,10.73
2023-01-19T20:46:58.707Z,10.72
2023-01-19T20:58:58.731Z,10.72
2023-01-19T21:10:58.749Z,10.72
2023-01-19T21:22:58.721Z,10.71
2023-01-19T21:34:58.625Z,10.71
2023-01-19T21:46:58.754Z,10.71
2023-01-19T21:58:58.645Z,10.70
2023-01-19T22:10:58.625Z,10.69
2023-01-19T22:22:58.699Z,10.69
2023-01-19T22:34:58.702Z,10.66
2023-01-19T22:46:58.657Z,10.68
2023-01-19T22:58:58.668Z,10.65
2023-01-19T23:10:58.709Z,10.67
2023-01-19T23:22:58.620Z,10.66
2023-01-19T23:34:58.624Z,10.66
2023-01-19T23:46:58.640Z,10.64
2023-01-19T23:58:58.715Z,10.64
